createdAt,value
2022-11-06T00:00:42.161Z,4.82
2022-11-06T00:03:10.255Z,4.55
2022-11-06T00:06:01.189Z,5.03
2022-11-06T00:08:37.272Z,4.45
2022-11-06T00:11:13.369Z,4.50
2022-11-06T00:13:45.217Z,4.95
2022-11-06T00:16:14.044Z,4.05
2022-11-06T00:18:42.456Z,4.68
2022-11-06T00:21:16.320Z,4.85
2022-11-06T00:23:45.731Z,4.60
2022-11-06T00:26:16.567Z,4.50
2022-11-06T00:28:44.471Z,4.93
2022-11-06T00:31:15.239Z,4.57
2022-11-06T00:33:43.817Z,4.70
2022-11-06T00:36:15.479Z,4.15
2022-11-06T00:38:43.120Z,4.57
2022-11-06T00:41:14.457Z,4.93
2022-11-06T00:43:43.583Z,4.70
2022-11-06T00:46:20.859Z,4.40
2022-11-06T00:48:48.440Z,4.88
2022-11-06T00:51:36.017Z,4.60
2022-11-06T00:54:07.428Z,4.38
2022-11-06T00:56:35.234Z,4.32
2022-11-06T00:59:08.481Z,4.30
2022-11-06T01:01:44.469Z,4.43
2022-11-06T01:04:21.459Z,4.07
2022-11-06T01:06:51.299Z,3.72
2022-11-06T01:09:21.253Z,4.38
2022-11-06T01:14:43.072Z,3.60
2022-11-06T01:17:14.098Z,4.28
2022-11-06T01:19:41.829Z,4.53
2022-11-06T01:22:10.391Z,4.32
2022-11-06T01:24:38.828Z,3.83
2022-11-06T01:29:55.455Z,4.00
2022-11-06T01:32:23.720Z,4.32
2022-11-06T01:34:51.888Z,3.80
2022-11-06T01:37:19.478Z,3.67
2022-11-06T01:39:48.938Z,3.60
2022-11-06T01:42:19.333Z,3.15
2022-11-06T01:45:16.033Z,3.42
2022-11-06T01:47:45.277Z,3.50
2022-11-06T01:50:15.845Z,2.58
2022-11-06T01:52:45.622Z,3.50
2022-11-06T01:55:27.386Z,3.10
2022-11-06T01:57:56.101Z,3.03
2022-11-06T02:00:24.184Z,2.88
2022-11-06T02:02:51.913Z,3.60
2022-11-06T02:05:19.588Z,3.25
2022-11-06T02:07:47.468Z,2.83
2022-11-06T02:10:15.478Z,3.10
2022-11-06T02:13:01.737Z,2.85
2022-11-06T02:15:52.357Z,2.97
2022-11-06T02:18:29.089Z,3.20
2022-11-06T02:21:18.225Z,2.80
2022-11-06T02:24:15.148Z,2.83
2022-11-06T02:26:56.095Z,2.67
2022-11-06T02:29:33.465Z,2.63
2022-11-06T02:32:07.441Z,2.58
2022-11-06T02:34:39.591Z,2.10
2022-11-06T02:37:26.694Z,2.55
2022-11-06T02:39:57.374Z,2.05
2022-11-06T02:42:27.238Z,1.90
2022-11-06T02:44:57.263Z,2.13
2022-11-06T02:47:29.039Z,2.20
2022-11-06T02:50:03.552Z,2.13
2022-11-06T02:52:45.437Z,1.88
2022-11-06T02:55:19.145Z,2.30
2022-11-06T02:57:53.091Z,2.40
2022-11-06T03:00:22.580Z,2.30
2022-11-06T03:03:09.586Z,2.30
2022-11-06T03:05:44.503Z,2.00
2022-11-06T03:08:24.412Z,2.25
2022-11-06T03:11:05.045Z,1.90
2022-11-06T03:13:57.342Z,1.70
2022-11-06T03:16:39.726Z,2.28
2022-11-06T03:19:23.117Z,1.90
2022-11-06T03:22:08.734Z,2.50
2022-11-06T03:24:38.898Z,2.80
2022-11-06T03:27:23.388Z,2.83
2022-11-06T03:30:00.397Z,3.22
2022-11-06T03:32:34.119Z,3.25
2022-11-06T03:35:06.693Z,2.80
2022-11-06T03:37:40.262Z,3.58
2022-11-06T03:40:13.635Z,3.47
2022-11-06T03:42:42.726Z,3.28
2022-11-06T03:45:15.822Z,3.08
2022-11-06T03:47:48.531Z,3.50
2022-11-06T03:50:22.234Z,2.22
2022-11-06T03:53:01.572Z,4.03
2022-11-06T03:55:33.776Z,4.50
2022-11-06T03:58:09.490Z,4.18
2022-11-06T04:00:40.772Z,3.70
2022-11-06T04:03:22.481Z,4.40
2022-11-06T04:06:00.608Z,4.97
2022-11-06T04:08:51.513Z,5.05
2022-11-06T04:11:43.010Z,4.82
2022-11-06T04:14:12.991Z,3.90
2022-11-06T04:16:45.874Z,4.35
2022-11-06T04:19:17.473Z,4.90
2022-11-06T04:22:23.322Z,4.78
2022-11-06T04:25:36.810Z,4.50
2022-11-06T04:28:37.853Z,5.72
2022-11-06T04:31:11.194Z,4.82
2022-11-06T04:33:57.445Z,5.30
2022-11-06T04:36:49.057Z,5.32
2022-11-06T04:39:42.772Z,2.78
2022-11-06T04:42:44.898Z,4.40
2022-11-06T04:45:18.453Z,5.00
2022-11-06T04:47:47.685Z,5.60
2022-11-06T04:50:17.772Z,5.60
2022-11-06T04:52:46.657Z,5.20
2022-11-06T04:55:16.265Z,4.55
2022-11-06T04:57:46.758Z,5.28
2022-11-06T05:00:15.191Z,4.63
2022-11-06T05:02:42.748Z,4.47
2022-11-06T05:05:10.285Z,5.15
2022-11-06T05:07:39.248Z,5.63
2022-11-06T05:10:06.838Z,4.80
2022-11-06T05:12:34.246Z,6.15
2022-11-06T05:15:01.699Z,5.70
2022-11-06T05:17:35.280Z,6.10
2022-11-06T05:20:04.819Z,5.15
2022-11-06T05:22:50.900Z,6.35
2022-11-06T05:25:18.351Z,6.10
2022-11-06T05:27:48.699Z,5.32
2022-11-06T05:30:16.345Z,6.28
2022-11-06T05:32:43.712Z,6.03
2022-11-06T05:35:12.183Z,5.40
2022-11-06T05:37:39.529Z,4.72
2022-11-06T05:40:11.013Z,5.88
2022-11-06T05:42:43.861Z,5.45
2022-11-06T05:45:12.702Z,6.30
2022-11-06T05:47:42.763Z,6.03
2022-11-06T05:50:12.578Z,5.85
2022-11-06T05:52:40.029Z,5.60
2022-11-06T05:55:13.268Z,6.40
2022-11-06T05:57:42.553Z,4.93
2022-11-06T06:00:11.723Z,6.63
2022-11-06T06:02:39.476Z,6.28
2022-11-06T06:05:10.566Z,6.00
2022-11-06T06:07:38.068Z,6.57
2022-11-06T06:10:06.055Z,6.90
2022-11-06T06:12:33.875Z,6.82
2022-11-06T06:15:01.291Z,8.13
2022-11-06T06:17:30.026Z,5.07
2022-11-06T06:19:57.375Z,7.82
2022-11-06T06:22:25.947Z,7.18
2022-11-06T06:24:53.490Z,8.23
2022-11-06T06:27:21.282Z,7.80
2022-11-06T06:29:48.751Z,8.00
2022-11-06T06:32:16.707Z,8.18
2022-11-06T06:34:44.328Z,7.97
2022-11-06T06:37:14.353Z,8.23
2022-11-06T06:39:44.666Z,5.65
2022-11-06T06:42:12.054Z,7.78
2022-11-06T06:44:39.412Z,8.25
2022-11-06T06:47:07.094Z,7.38
2022-11-06T06:49:36.983Z,6.35
2022-11-06T06:52:04.864Z,6.35
2022-11-06T06:54:33.436Z,6.43
2022-11-06T06:57:01.091Z,6.85
2022-11-06T06:59:29.229Z,4.40
2022-11-06T07:01:58.032Z,7.70
2022-11-06T07:04:25.678Z,6.75
2022-11-06T07:09:38.425Z,6.15
2022-11-06T07:12:05.947Z,7.13
2022-11-06T07:14:33.303Z,6.70
2022-11-06T07:17:00.828Z,6.95
2022-11-06T07:19:28.200Z,6.60
2022-11-06T07:21:55.939Z,7.15
2022-11-06T07:24:23.699Z,6.47
2022-11-06T07:26:51.223Z,7.72
2022-11-06T07:29:18.725Z,7.72
2022-11-06T07:31:46.175Z,5.47
2022-11-06T07:34:13.998Z,8.27
2022-11-06T07:36:41.707Z,7.65
2022-11-06T07:39:09.178Z,7.70
2022-11-06T07:41:37.542Z,7.60
2022-11-06T07:44:05.645Z,7.28
2022-11-06T07:46:33.717Z,6.68
2022-11-06T07:49:02.367Z,6.25
2022-11-06T07:51:30.317Z,6.75
2022-11-06T07:53:57.872Z,3.70
2022-11-06T07:56:25.510Z,5.97
2022-11-06T07:58:52.975Z,5.85
2022-11-06T08:01:21.298Z,5.85
2022-11-06T08:03:48.771Z,5.30
2022-11-06T08:06:16.508Z,6.07
2022-11-06T08:08:45.205Z,5.47
2022-11-06T08:11:13.431Z,5.60
2022-11-06T08:13:41.063Z,5.10
2022-11-06T08:16:11.484Z,4.55
2022-11-06T08:18:39.768Z,4.78
2022-11-06T08:21:08.307Z,5.30
2022-11-06T08:23:36.675Z,4.47
2022-11-06T08:26:07.605Z,4.53
2022-11-06T08:28:38.381Z,4.00
2022-11-06T08:31:07.431Z,4.78
2022-11-06T08:33:37.062Z,4.00
2022-11-06T08:36:06.705Z,4.50
2022-11-06T08:38:34.399Z,3.75
2022-11-06T08:41:10.206Z,4.18
2022-11-06T08:43:38.998Z,2.90
2022-11-06T08:46:08.365Z,3.47
2022-11-06T08:48:36.518Z,3.28
2022-11-06T08:51:13.945Z,2.90
2022-11-06T08:53:51.958Z,2.90
2022-11-06T08:56:20.417Z,3.53
2022-11-06T08:58:51.595Z,3.55
2022-11-06T09:01:24.645Z,3.75
2022-11-06T09:03:52.256Z,2.75
2022-11-06T09:06:19.778Z,3.33
2022-11-06T09:08:47.239Z,3.40
2022-11-06T09:11:14.712Z,3.10
2022-11-06T09:13:42.422Z,3.50
2022-11-06T09:16:15.513Z,3.70
2022-11-06T09:18:44.391Z,3.30
2022-11-06T09:21:11.894Z,3.47
2022-11-06T09:23:39.261Z,3.10
2022-11-06T09:26:06.618Z,2.90
2022-11-06T09:28:34.355Z,3.55
2022-11-06T09:31:02.684Z,2.88
2022-11-06T09:33:31.131Z,2.85
2022-11-06T09:35:58.961Z,2.78
2022-11-06T09:38:26.454Z,3.75
2022-11-06T09:40:58.070Z,2.85
2022-11-06T09:44:09.282Z,3.10
2022-11-06T09:46:44.075Z,2.88
2022-11-06T09:49:20.482Z,3.00
2022-11-06T09:52:16.601Z,2.80
2022-11-06T09:54:53.501Z,2.53
2022-11-06T09:57:57.158Z,2.65
2022-11-06T10:00:24.997Z,2.28
2022-11-06T10:03:10.977Z,2.50
2022-11-06T10:05:41.458Z,2.67
2022-11-06T10:08:22.758Z,2.63
2022-11-06T10:11:08.425Z,2.67
2022-11-06T10:13:58.356Z,1.60
2022-11-06T10:16:44.069Z,2.15
2022-11-06T10:19:32.685Z,2.30
2022-11-06T10:22:15.885Z,2.13
2022-11-06T10:24:52.698Z,2.28
2022-11-06T10:27:28.170Z,2.70
2022-11-06T10:30:15.919Z,1.90
2022-11-06T10:32:55.759Z,2.10
2022-11-06T10:35:29.764Z,2.05
2022-11-06T10:38:10.573Z,2.15
2022-11-06T10:40:42.116Z,2.00
2022-11-06T10:43:27.381Z,1.90
2022-11-06T10:46:21.421Z,1.88
2022-11-06T10:49:12.411Z,2.00
2022-11-06T10:52:36.647Z,1.80
2022-11-06T10:55:28.791Z,2.15
2022-11-06T10:58:02.958Z,1.98
2022-11-06T11:00:31.641Z,3.28
2022-11-06T11:03:02.271Z,2.28
2022-11-06T11:05:41.525Z,1.95
2022-11-06T11:08:57.252Z,2.10
2022-11-06T11:11:26.965Z,1.90
2022-11-06T11:13:59.472Z,2.05
2022-11-06T11:16:28.436Z,2.40
2022-11-06T11:19:16.152Z,2.17
2022-11-06T11:21:59.613Z,1.80
2022-11-06T11:24:27.901Z,1.98
2022-11-06T11:27:17.876Z,2.05
2022-11-06T11:29:52.688Z,2.03
2022-11-06T11:32:23.790Z,1.15
2022-11-06T11:34:56.817Z,2.03
2022-11-06T11:37:36.240Z,1.48
2022-11-06T11:40:39.137Z,1.75
2022-11-06T11:43:28.723Z,1.55
2022-11-06T11:48:59.005Z,1.80
2022-11-06T11:52:24.614Z,1.80
2022-11-06T11:55:21.380Z,1.40
2022-11-06T11:58:00.788Z,1.60
2022-11-06T12:00:29.723Z,1.60
2022-11-06T12:03:02.808Z,1.55
2022-11-06T12:05:37.670Z,1.63
2022-11-06T12:11:03.690Z,1.58
2022-11-06T12:13:31.209Z,1.42
2022-11-06T12:16:10.898Z,1.60
2022-11-06T12:18:45.389Z,1.70
2022-11-06T12:21:21.905Z,1.45
2022-11-06T12:24:10.532Z,1.77
2022-11-06T12:27:29.540Z,1.85
2022-11-06T12:29:56.904Z,1.40
2022-11-06T12:33:17.576Z,1.70
2022-11-06T12:36:00.219Z,0.90
2022-11-06T12:38:41.790Z,1.65
2022-11-06T12:41:29.719Z,2.65
2022-11-06T12:43:58.882Z,1.60
2022-11-06T12:46:47.584Z,1.98
2022-11-06T12:49:44.340Z,1.50
2022-11-06T12:52:14.477Z,2.08
2022-11-06T12:55:12.679Z,1.60
2022-11-06T12:57:58.713Z,1.92
2022-11-06T13:00:36.603Z,2.22
2022-11-06T13:03:27.392Z,1.75
2022-11-06T13:06:16.279Z,1.60
2022-11-06T13:08:53.167Z,2.00
2022-11-06T13:11:46.741Z,1.40
2022-11-06T13:14:46.533Z,2.15
2022-11-06T13:17:31.412Z,1.85
2022-11-06T13:20:17.802Z,1.80
2022-11-06T13:22:50.134Z,2.03
2022-11-06T13:25:25.221Z,1.50
2022-11-06T13:28:19.424Z,1.88
2022-11-06T13:30:47.890Z,2.40
2022-11-06T13:33:20.874Z,1.70
2022-11-06T13:35:48.547Z,1.88
2022-11-06T13:38:52.897Z,2.22
2022-11-06T13:41:29.808Z,1.98
2022-11-06T13:44:05.231Z,2.15
2022-11-06T13:46:42.334Z,1.70
2022-11-06T13:49:15.408Z,1.52
2022-11-06T13:51:59.827Z,1.85
2022-11-06T13:54:30.250Z,2.00
2022-11-06T13:57:36.649Z,2.00
2022-11-06T14:00:20.712Z,1.88
2022-11-06T14:02:59.896Z,2.00
2022-11-06T14:05:46.584Z,2.35
2022-11-06T14:08:25.902Z,2.08
2022-11-06T14:11:31.064Z,1.70
2022-11-06T14:14:03.372Z,1.70
2022-11-06T14:16:33.766Z,1.77
2022-11-06T14:19:14.232Z,1.80
2022-11-06T14:21:47.680Z,1.73
2022-11-06T14:24:36.637Z,2.00
2022-11-06T14:27:13.667Z,1.58
2022-11-06T14:29:54.823Z,2.00
2022-11-06T14:32:31.281Z,1.90
2022-11-06T14:35:31.206Z,1.85
2022-11-06T14:38:32.607Z,1.98
2022-11-06T14:41:00.662Z,1.70
2022-11-06T14:43:30.099Z,1.80
2022-11-06T14:46:03.243Z,1.98
2022-11-06T14:48:43.610Z,1.95
2022-11-06T14:51:12.417Z,1.90
2022-11-06T14:53:51.745Z,1.75
2022-11-06T14:56:28.916Z,1.95
2022-11-06T14:59:28.840Z,1.90
2022-11-06T15:02:01.175Z,2.63
2022-11-06T15:04:31.776Z,1.85
2022-11-06T15:07:09.858Z,1.98
2022-11-06T15:09:41.623Z,1.90
2022-11-06T15:12:09.462Z,1.90
2022-11-06T15:14:37.014Z,2.20
2022-11-06T15:17:11.673Z,2.05
2022-11-06T15:19:46.855Z,2.05
2022-11-06T15:22:49.052Z,2.80
2022-11-06T15:25:16.338Z,2.03
2022-11-06T15:28:04.341Z,2.78
2022-11-06T15:31:04.377Z,2.55
2022-11-06T15:33:48.501Z,2.75
2022-11-06T15:36:19.728Z,2.80
2022-11-06T15:38:47.142Z,3.20
2022-11-06T15:41:19.414Z,3.15
2022-11-06T15:43:49.408Z,3.25
2022-11-06T15:46:29.141Z,3.33
2022-11-06T15:49:17.698Z,3.22
2022-11-06T15:52:02.070Z,3.08
2022-11-06T15:54:44.077Z,3.00
2022-11-06T15:57:18.847Z,2.95
2022-11-06T15:59:46.601Z,3.05
2022-11-06T16:02:23.516Z,3.30
2022-11-06T16:04:52.203Z,3.72
2022-11-06T16:07:20.148Z,4.45
2022-11-06T16:09:48.316Z,3.03
2022-11-06T16:12:18.287Z,2.65
2022-11-06T16:14:46.070Z,2.53
2022-11-06T16:17:25.605Z,2.53
2022-11-06T16:19:56.055Z,2.88
2022-11-06T16:22:30.326Z,2.90
2022-11-06T16:25:07.866Z,2.60
2022-11-06T16:27:37.538Z,2.22
2022-11-06T16:30:06.844Z,2.60
2022-11-06T16:32:41.185Z,2.50
2022-11-06T16:35:32.387Z,2.40
2022-11-06T16:38:41.433Z,2.65
2022-11-06T16:41:39.686Z,2.50
2022-11-06T16:44:19.485Z,1.25
2022-11-06T16:47:05.284Z,2.60
2022-11-06T16:49:41.495Z,2.72
2022-11-06T16:52:29.783Z,2.60
2022-11-06T16:55:06.741Z,2.58
2022-11-06T16:57:41.977Z,2.78
2022-11-06T17:00:21.338Z,3.00
2022-11-06T17:03:03.496Z,2.50
2022-11-06T17:05:34.087Z,2.25
2022-11-06T17:08:18.198Z,2.28
2022-11-06T17:10:47.289Z,2.28
2022-11-06T17:13:32.554Z,2.72
2022-11-06T17:16:05.335Z,2.05
2022-11-06T17:18:38.674Z,3.00
2022-11-06T17:21:11.943Z,2.40
2022-11-06T17:23:39.807Z,2.17
2022-11-06T17:26:17.481Z,2.42
2022-11-06T17:28:45.521Z,2.00
2022-11-06T17:31:14.655Z,2.30
2022-11-06T17:33:43.509Z,2.70
2022-11-06T17:36:18.756Z,2.80
2022-11-06T17:38:46.914Z,2.60
2022-11-06T17:41:30.020Z,1.80
2022-11-06T17:44:03.363Z,2.15
2022-11-06T17:46:36.773Z,2.05
2022-11-06T17:49:04.980Z,2.28
2022-11-06T17:51:50.645Z,2.35
2022-11-06T17:54:20.125Z,2.05
2022-11-06T17:56:47.901Z,2.40
2022-11-06T17:59:15.783Z,2.22
2022-11-06T18:01:43.730Z,2.15
2022-11-06T18:04:11.390Z,2.40
2022-11-06T18:06:39.189Z,2.35
2022-11-06T18:09:08.302Z,2.40
2022-11-06T18:11:35.944Z,2.88
2022-11-06T18:14:04.063Z,2.60
2022-11-06T18:16:33.490Z,2.45
2022-11-06T18:19:01.623Z,2.50
2022-11-06T18:21:29.155Z,2.50
2022-11-06T18:23:56.797Z,2.60
2022-11-06T18:26:24.647Z,2.72
2022-11-06T18:28:52.583Z,2.10
2022-11-06T18:31:20.654Z,1.63
2022-11-06T18:33:48.534Z,2.75
2022-11-06T18:36:16.558Z,2.58
2022-11-06T18:38:44.354Z,2.60
2022-11-06T18:41:17.401Z,2.53
2022-11-06T18:43:47.854Z,2.30
2022-11-06T18:46:17.248Z,2.85
2022-11-06T18:48:45.606Z,2.53
2022-11-06T18:51:32.627Z,2.42
2022-11-06T18:54:05.081Z,2.83
2022-11-06T18:56:34.178Z,2.80
2022-11-06T18:59:02.462Z,2.60
2022-11-06T19:01:30.478Z,2.70
2022-11-06T19:03:58.097Z,2.60
2022-11-06T19:06:25.682Z,3.03
2022-11-06T19:08:53.493Z,3.00
2022-11-06T19:11:21.216Z,3.30
2022-11-06T19:13:48.943Z,3.00
2022-11-06T19:16:19.648Z,2.63
2022-11-06T19:21:30.732Z,2.70
2022-11-06T19:24:03.976Z,3.38
2022-11-06T19:26:34.247Z,2.90
2022-11-06T19:29:02.452Z,2.72
2022-11-06T19:31:30.644Z,2.33
2022-11-06T19:33:59.601Z,3.03
2022-11-06T19:36:28.224Z,3.30
2022-11-06T19:38:58.586Z,3.50
2022-11-06T19:41:27.592Z,2.78
2022-11-06T19:43:55.575Z,3.38
2022-11-06T19:46:27.136Z,3.30
2022-11-06T19:48:57.199Z,3.20
2022-11-06T19:51:26.007Z,2.80
2022-11-06T19:53:54.262Z,3.53
2022-11-06T19:56:22.778Z,2.97
2022-11-06T19:58:52.034Z,3.15
2022-11-06T20:01:20.791Z,3.28
2022-11-06T20:03:48.422Z,3.22
2022-11-06T20:06:16.712Z,3.25
2022-11-06T20:08:48.033Z,3.13
2022-11-06T20:11:16.140Z,2.90
2022-11-06T20:13:45.359Z,2.90
2022-11-06T20:16:18.893Z,2.33
2022-11-06T20:18:55.658Z,3.15
2022-11-06T20:21:26.383Z,2.35
2022-11-06T20:23:54.911Z,2.72
2022-11-06T20:26:23.195Z,2.67
2022-11-06T20:28:51.573Z,3.08
2022-11-06T20:31:19.660Z,2.65
2022-11-06T20:33:48.028Z,3.38
2022-11-06T20:36:23.269Z,3.55
2022-11-06T20:38:57.107Z,2.65
2022-11-06T20:41:25.172Z,2.80
2022-11-06T20:43:53.465Z,3.67
2022-11-06T20:46:22.258Z,2.95
2022-11-06T20:48:50.438Z,3.03
2022-11-06T20:51:24.718Z,2.92
2022-11-06T20:53:52.800Z,4.05
2022-11-06T20:56:22.567Z,3.40
2022-11-06T20:58:55.074Z,3.67
2022-11-06T21:01:27.770Z,4.63
2022-11-06T21:03:57.258Z,3.45
2022-11-06T21:06:26.660Z,3.22
2022-11-06T21:08:54.438Z,3.88
2022-11-06T21:11:24.726Z,4.32
2022-11-06T21:13:55.278Z,3.75
2022-11-06T21:16:24.909Z,4.38
2022-11-06T21:18:53.050Z,4.80
2022-11-06T21:21:23.554Z,4.82
2022-11-06T21:23:52.260Z,5.15
2022-11-06T21:26:25.312Z,4.65
2022-11-06T21:28:53.106Z,3.63
2022-11-06T21:31:23.448Z,4.65
2022-11-06T21:33:52.582Z,3.58
2022-11-06T21:36:23.051Z,2.78
2022-11-06T21:38:50.854Z,3.90
2022-11-06T21:41:24.385Z,3.67
2022-11-06T21:43:52.388Z,4.45
2022-11-06T21:46:20.105Z,4.38
2022-11-06T21:48:48.573Z,3.90
2022-11-06T21:51:21.431Z,4.57
2022-11-06T21:54:08.423Z,3.97
2022-11-06T21:56:37.226Z,3.38
2022-11-06T21:59:07.581Z,2.97
2022-11-06T22:01:35.529Z,2.38
2022-11-06T22:04:03.746Z,4.63
2022-11-06T22:06:31.881Z,4.07
2022-11-06T22:09:01.470Z,4.95
2022-11-06T22:11:35.194Z,4.50
2022-11-06T22:14:07.465Z,4.70
2022-11-06T22:16:38.256Z,4.60
2022-11-06T22:19:08.053Z,4.38
2022-11-06T22:21:37.180Z,2.50
2022-11-06T22:24:07.098Z,3.10
2022-11-06T22:26:36.038Z,3.80
2022-11-06T22:29:07.410Z,4.20
2022-11-06T22:31:35.491Z,3.47
2022-11-06T22:34:03.665Z,2.90
2022-11-06T22:36:31.631Z,3.58
2022-11-06T22:39:02.944Z,4.00
2022-11-06T22:41:30.474Z,3.83
2022-11-06T22:43:59.778Z,4.00
2022-11-06T22:46:29.543Z,3.88
2022-11-06T22:49:00.606Z,3.95
2022-11-06T22:51:31.970Z,3.70
2022-11-06T22:54:01.453Z,3.20
2022-11-06T22:56:37.299Z,4.38
2022-11-06T22:59:10.515Z,3.05
2022-11-06T23:01:43.510Z,2.92
2022-11-06T23:04:17.231Z,2.53
2022-11-06T23:06:46.751Z,3.88
2022-11-06T23:09:18.775Z,3.53
2022-11-06T23:11:49.153Z,3.40
2022-11-06T23:17:01.813Z,4.57
2022-11-06T23:22:34.408Z,4.20
2022-11-06T23:27:37.065Z,4.18
2022-11-06T23:30:07.053Z,1.70
2022-11-06T23:32:43.009Z,2.92
2022-11-06T23:35:14.191Z,2.67
2022-11-06T23:37:42.888Z,3.15
2022-11-06T23:40:33.674Z,3.17
2022-11-06T23:43:01.350Z,2.90
2022-11-06T23:45:55.792Z,3.50
2022-11-06T23:48:25.782Z,2.35
2022-11-06T23:51:01.205Z,3.70
2022-11-06T23:53:39.449Z,2.75
2022-11-06T23:56:22.936Z,3.65
2022-11-06T23:58:52.899Z,3.85
